Time;durP1;ratioP1;P1;durP2;ratioP2;P2;SDS_P1;SDS_P2;PMS_P1;PMS_P2;Temp;Humidity;BMP_temperature;BMP_pressure;BME280_temperature;BME280_humidity;BME280_pressure;Samples;Min_cycle;Max_cycle;Signal;HPM_P1;HPM_P2
2021/06/28 00:00:08;;;;;;;3.67;2.58;;;25.10;64.40;;;;;;5196851;28;20069;-73
2021/06/28 00:02:44;;;;;;;3.45;2.67;;;25.10;64.40;;;;;;5175301;28;20060;-72
2021/06/28 00:05:18;;;;;;;3.95;3.08;;;25.10;64.40;;;;;;5171802;28;20494;-72
2021/06/28 00:07:51;;;;;;;5.45;2.97;;;25.10;64.50;;;;;;5159770;28;20513;-72
2021/06/28 00:10:26;;;;;;;6.70;3.00;;;25.00;64.40;;;;;;5145584;28;20050;-72
2021/06/28 00:13:05;;;;;;;4.28;2.67;;;25.10;64.50;;;;;;5159657;28;20521;-73
2021/06/28 00:15:38;;;;;;;5.13;2.37;;;25.10;64.50;;;;;;5167371;28;20057;-72
2021/06/28 00:18:13;;;;;;;7.90;2.92;;;25.10;64.50;;;;;;5160194;28;20064;-74
2021/06/28 00:20:47;;;;;;;7.55;3.10;;;25.10;64.50;;;;;;5158429;28;20068;-72
2021/06/28 00:23:20;;;;;;;3.70;2.60;;;25.00;65.00;;;;;;5179090;28;20049;-72
2021/06/28 00:25:53;;;;;;;5.70;2.97;;;25.00;64.30;;;;;;5182581;28;20053;-72
2021/06/28 00:28:33;;;;;;;4.85;2.75;;;25.00;64.30;;;;;;5174804;28;20057;-71
2021/06/28 00:31:05;;;;;;;2.83;2.63;;;25.00;64.30;;;;;;5175673;28;20061;-74
2021/06/28 00:33:42;;;;;;;4.05;2.80;;;25.00;64.30;;;;;;5197967;28;20045;-72
2021/06/28 00:36:15;;;;;;;3.17;2.65;;;25.00;64.30;;;;;;5183495;28;20049;-74
2021/06/28 00:38:47;;;;;;;3.17;2.50;;;25.00;64.30;;;;;;5182862;28;20045;-72
2021/06/28 00:41:20;;;;;;;4.00;2.83;;;25.00;64.20;;;;;;5158687;28;20076;-73
2021/06/28 00:43:52;;;;;;;3.60;2.20;;;25.00;64.20;;;;;;5181483;28;20061;-75
2021/06/28 00:46:25;;;;;;;4.55;2.50;;;25.00;64.20;;;;;;5178350;28;20050;-74
2021/06/28 00:48:57;;;;;;;8.27;2.87;;;25.00;64.20;;;;;;5168565;28;20395;-72
2021/06/28 00:51:30;;;;;;;4.95;2.38;;;25.00;64.20;;;;;;5190447;28;20049;-72
2021/06/28 00:54:02;;;;;;;2.70;2.28;;;25.00;64.20;;;;;;5179917;28;20050;-72
2021/06/28 00:56:35;;;;;;;8.45;2.58;;;25.00;64.10;;;;;;5183615;28;20058;-72
2021/06/28 00:59:08;;;;;;;3.95;2.10;;;24.90;64.00;;;;;;5177862;28;20054;-73
2021/06/28 01:01:40;;;;;;;2.60;2.00;;;24.90;64.00;;;;;;5159252;28;20061;-72
2021/06/28 01:04:13;;;;;;;3.60;2.25;;;24.90;64.00;;;;;;5178959;28;20041;-73
2021/06/28 01:06:46;;;;;;;4.85;2.00;;;24.90;63.90;;;;;;5180736;28;20585;-74
2021/06/28 01:09:18;;;;;;;4.07;2.00;;;24.90;63.90;;;;;;5178253;28;20049;-72
2021/06/28 01:11:51;;;;;;;3.65;2.05;;;24.90;63.90;;;;;;5179927;28;20053;-71
2021/06/28 01:14:24;;;;;;;3.10;2.38;;;24.90;64.00;;;;;;5173538;28;20523;-73
2021/06/28 01:16:58;;;;;;;3.05;2.13;;;24.90;63.90;;;;;;5182656;28;20809;-72
2021/06/28 01:19:34;;;;;;;3.10;2.15;;;24.90;63.90;;;;;;5181353;28;20050;-72
2021/06/28 01:22:10;;;;;;;4.75;2.33;;;24.90;63.90;;;;;;5181777;28;20544;-74
2021/06/28 01:24:43;;;;;;;2.75;2.00;;;24.90;64.00;;;;;;5188219;28;20057;-72
2021/06/28 01:27:15;;;;;;;6.93;2.40;;;24.90;63.90;;;;;;5178181;28;20056;-72
2021/06/28 01:29:53;;;;;;;2.63;2.20;;;24.80;63.80;;;;;;5176292;28;20122;-71
2021/06/28 01:32:27;;;;;;;3.20;2.30;;;24.90;63.90;;;;;;5181244;28;20061;-73
2021/06/28 01:34:59;;;;;;;2.20;2.00;;;24.80;63.80;;;;;;5179998;28;20045;-71
2021/06/28 01:37:32;;;;;;;3.25;1.90;;;24.80;63.90;;;;;;5185951;28;20518;-72
2021/06/28 01:40:07;;;;;;;2.92;1.90;;;24.80;63.80;;;;;;5179844;28;20042;-73
2021/06/28 01:42:40;;;;;;;4.35;1.63;;;24.80;63.80;;;;;;5181287;28;20050;-71
2021/06/28 01:45:19;;;;;;;3.00;1.85;;;24.80;63.80;;;;;;5191537;28;20061;-74
2021/06/28 01:47:54;;;;;;;3.00;1.95;;;24.80;63.80;;;;;;5180529;28;20119;-72
2021/06/28 01:50:29;;;;;;;1.90;1.67;;;24.80;63.80;;;;;;5175884;28;20068;-71
2021/06/28 01:53:03;;;;;;;3.85;2.22;;;24.80;63.80;;;;;;5182905;28;20050;-71
2021/06/28 01:55:35;;;;;;;;;;;24.80;63.80;;;;;;5180654;28;20421;-71
2021/06/28 01:58:12;;;;;;;2.57;1.60;;;24.70;63.90;;;;;;5174144;28;19929;-74
2021/06/28 02:00:50;;;;;;;7.10;1.80;;;24.80;64.50;;;;;;5175456;28;20045;-72
2021/06/28 02:03:24;;;;;;;7.22;1.77;;;24.80;63.90;;;;;;5178521;28;20110;-74
2021/06/28 02:05:58;;;;;;;2.85;1.80;;;24.80;63.80;;;;;;5182811;28;20057;-71
2021/06/28 02:08:33;;;;;;;3.58;1.77;;;24.80;63.80;;;;;;5181703;28;20049;-73
2021/06/28 02:11:06;;;;;;;4.80;1.70;;;24.80;63.80;;;;;;5180866;28;20049;-72
2021/06/28 02:13:39;;;;;;;2.42;1.80;;;24.80;63.70;;;;;;5178018;28;20053;-73
2021/06/28 02:16:11;;;;;;;3.65;2.08;;;24.80;63.70;;;;;;5177735;28;20054;-73
2021/06/28 02:18:44;;;;;;;3.13;1.70;;;24.80;63.70;;;;;;5179892;28;20050;-72
2021/06/28 02:21:16;;;;;;;1.83;1.50;;;24.80;63.60;;;;;;5180973;28;20096;-72
2021/06/28 02:23:49;;;;;;;1.88;1.60;;;24.80;63.60;;;;;;5182829;28;20493;-71
2021/06/28 02:26:21;;;;;;;1.83;1.58;;;24.80;63.60;;;;;;5193097;28;20057;-71
2021/06/28 02:28:53;;;;;;;2.58;1.67;;;24.80;63.60;;;;;;5180580;28;20056;-74
2021/06/28 02:31:26;;;;;;;1.67;1.50;;;24.80;63.60;;;;;;5176509;28;20050;-72
2021/06/28 02:33:59;;;;;;;1.85;1.60;;;24.70;63.50;;;;;;5174770;28;20046;-71
2021/06/28 02:36:32;;;;;;;1.63;1.52;;;24.80;63.60;;;;;;5178030;28;20050;-71
2021/06/28 02:39:07;;;;;;;1.83;1.50;;;24.80;63.50;;;;;;5184442;28;20057;-72
2021/06/28 02:41:48;;;;;;;5.25;1.60;;;24.80;63.60;;;;;;5179562;28;20071;-72
2021/06/28 02:44:41;;;;;;;1.90;1.52;;;24.80;63.60;;;;;;5144855;28;20072;-73
2021/06/28 02:47:14;;;;;;;2.28;1.55;;;24.80;63.60;;;;;;5182890;28;20050;-73
2021/06/28 02:49:46;;;;;;;5.05;1.30;;;24.70;63.50;;;;;;5185174;28;20061;-75
2021/06/28 02:52:19;;;;;;;2.40;1.30;;;24.70;63.50;;;;;;5182091;28;20049;-72
2021/06/28 02:54:51;;;;;;;4.60;1.45;;;24.70;63.50;;;;;;5186546;28;20056;-72
2021/06/28 02:57:24;;;;;;;6.85;1.65;;;24.70;63.40;;;;;;5178641;28;20244;-72
2021/06/28 02:59:56;;;;;;;2.53;1.40;;;24.70;63.50;;;;;;5195345;28;20054;-72
2021/06/28 03:02:40;;;;;;;6.75;1.50;;;24.70;63.50;;;;;;5232040;28;20501;-57
2021/06/28 03:05:24;;;;;;;1.88;1.40;;;24.70;63.50;;;;;;5170021;28;20498;-58
2021/06/28 03:08:07;;;;;;;4.50;1.60;;;24.70;63.50;;;;;;5208883;28;20453;-57
2021/06/28 03:10:50;;;;;;;4.22;1.50;;;24.70;63.40;;;;;;5250629;27;20424;-58
2021/06/28 03:13:33;;;;;;;3.38;1.38;;;24.70;63.40;;;;;;5203765;28;20546;-57
2021/06/28 03:16:17;;;;;;;4.35;1.50;;;24.70;63.50;;;;;;5251035;27;20846;-56
2021/06/28 03:19:01;;;;;;;4.90;1.20;;;24.70;63.40;;;;;;5221981;28;20444;-57
2021/06/28 03:21:44;;;;;;;1.63;1.20;;;24.70;63.40;;;;;;5222821;28;20799;-56
2021/06/28 03:24:27;;;;;;;4.88;1.88;;;24.70;63.30;;;;;;5241889;27;20508;-58
2021/06/28 03:27:12;;;;;;;1.85;1.30;;;24.70;63.30;;;;;;5222950;28;20427;-58
2021/06/28 03:29:55;;;;;;;3.03;1.63;;;24.70;63.30;;;;;;5245481;27;20218;-58
2021/06/28 03:32:40;;;;;;;5.25;1.83;;;24.70;63.40;;;;;;5251704;27;20546;-57
2021/06/28 03:35:24;;;;;;;3.95;1.73;;;24.70;63.30;;;;;;5248112;27;20626;-56
2021/06/28 03:38:07;;;;;;;4.35;1.42;;;24.70;63.50;;;;;;5264716;27;20422;-57
2021/06/28 03:40:50;;;;;;;3.17;1.60;;;24.70;63.80;;;;;;5214747;28;20538;-56
2021/06/28 03:43:34;;;;;;;3.03;1.63;;;24.70;64.00;;;;;;5214891;28;20504;-57
2021/06/28 03:46:20;;;;;;;6.32;1.58;;;24.70;64.10;;;;;;5245751;27;21258;-56
2021/06/28 03:49:03;;;;;;;4.55;1.77;;;24.70;64.20;;;;;;5225287;28;20525;-57
2021/06/28 03:51:46;;;;;;;8.95;2.22;;;24.70;64.30;;;;;;5205035;28;20423;-56
2021/06/28 03:54:29;;;;;;;8.65;2.10;;;24.70;64.40;;;;;;5227621;27;20470;-56
2021/06/28 03:57:12;;;;;;;6.13;1.67;;;24.70;64.40;;;;;;5217755;27;20490;-57
2021/06/28 03:59:55;;;;;;;10.80;2.15;;;24.80;64.50;;;;;;5244211;27;20516;-58
2021/06/28 04:02:43;;;;;;;6.20;1.65;;;24.80;64.60;;;;;;5274566;27;20501;-56
2021/06/28 04:05:26;;;;;;;11.52;1.90;;;24.70;64.50;;;;;;5220390;28;20490;-58
2021/06/28 04:08:09;;;;;;;11.48;2.55;;;24.80;64.60;;;;;;5222110;28;20489;-58
2021/06/28 04:10:52;;;;;;;6.75;2.25;;;24.80;64.70;;;;;;5246737;27;20996;-58
2021/06/28 04:13:35;;;;;;;8.10;1.73;;;24.80;64.70;;;;;;5222969;28;20467;-58
2021/06/28 04:16:18;;;;;;;6.05;1.60;;;24.80;64.80;;;;;;5226779;27;20493;-57
2021/06/28 04:19:01;;;;;;;12.68;2.45;;;24.80;64.90;;;;;;5191549;28;20499;-58
2021/06/28 04:21:44;;;;;;;12.30;1.98;;;24.80;64.80;;;;;;5225129;27;20499;-57
2021/06/28 04:24:27;;;;;;;10.65;2.60;;;24.80;64.90;;;;;;5208269;28;20981;-57
2021/06/28 04:27:10;;;;;;;11.45;3.00;;;24.80;64.90;;;;;;5220958;28;21169;-58
2021/06/28 04:29:53;;;;;;;8.38;2.20;;;24.80;65.00;;;;;;5214426;27;20612;-56
2021/06/28 04:32:38;;;;;;;10.98;2.42;;;24.80;65.00;;;;;;5233874;27;20512;-57
2021/06/28 04:35:28;;;;;;;7.43;2.13;;;24.80;65.00;;;;;;5215357;28;20487;-56
2021/06/28 04:38:12;;;;;;;6.60;2.03;;;24.80;65.00;;;;;;5249456;27;20859;-58
2021/06/28 04:40:55;;;;;;;5.93;2.25;;;24.80;65.10;;;;;;5261141;27;20537;-57
2021/06/28 04:43:38;;;;;;;6.07;1.83;;;24.80;65.10;;;;;;5230868;27;20521;-57
2021/06/28 04:46:21;;;;;;;8.07;2.22;;;24.80;65.10;;;;;;5189535;28;20434;-59
2021/06/28 04:49:04;;;;;;;8.38;2.22;;;24.80;65.10;;;;;;5190546;28;20562;-56
2021/06/28 04:51:47;;;;;;;8.57;2.10;;;24.80;65.20;;;;;;5245083;27;20495;-56
2021/06/28 04:54:30;;;;;;;8.90;1.90;;;24.80;65.20;;;;;;5216289;28;20562;-55
2021/06/28 04:57:16;;;;;;;7.40;2.08;;;24.80;65.20;;;;;;5253533;27;20990;-58
2021/06/28 04:59:59;;;;;;;11.88;2.20;;;24.80;65.30;;;;;;5226128;27;20493;-57
2021/06/28 05:02:43;;;;;;;12.23;2.10;;;24.80;65.50;;;;;;5208664;28;21039;-53
2021/06/28 05:05:27;;;;;;;7.97;2.15;;;24.80;65.20;;;;;;5204805;28;20408;-58
2021/06/28 05:08:10;;;;;;;12.88;2.53;;;24.80;65.00;;;;;;5236182;27;20558;-58
2021/06/28 05:10:53;;;;;;;19.08;2.88;;;24.80;65.40;;;;;;5254928;27;20400;-56
2021/06/28 05:13:36;;;;;;;13.77;2.15;;;24.80;65.20;;;;;;5194382;28;20847;-56
2021/06/28 05:16:19;;;;;;;13.50;3.10;;;24.80;65.00;;;;;;5197577;28;21046;-56
2021/06/28 05:19:02;;;;;;;17.27;2.88;;;24.80;65.10;;;;;;5194439;27;21172;-60
2021/06/28 05:21:49;;;;;;;17.15;2.58;;;24.80;65.20;;;;;;5223443;27;20999;-60
2021/06/28 05:24:33;;;;;;;14.18;2.80;;;24.80;65.30;;;;;;5208303;27;20987;-56
2021/06/28 05:27:16;;;;;;;15.48;2.95;;;24.90;65.40;;;;;;5174076;27;20510;-58
2021/06/28 05:30:04;;;;;;;9.77;2.50;;;25.00;65.30;;;;;;5159098;28;21225;-60
2021/06/28 05:32:46;;;;;;;7.88;2.30;;;25.00;65.10;;;;;;5172275;27;20770;-58
2021/06/28 05:35:30;;;;;;;7.05;1.88;;;25.10;65.00;;;;;;5239791;27;20410;-58
2021/06/28 05:38:14;;;;;;;4.22;2.25;;;25.10;65.00;;;;;;5196330;27;21005;-58
2021/06/28 05:40:57;;;;;;;3.72;2.40;;;25.20;65.00;;;;;;5164120;28;20670;-59
2021/06/28 05:43:40;;;;;;;5.18;2.15;;;25.20;65.00;;;;;;5189274;28;20880;-59
2021/06/28 05:46:23;;;;;;;2.97;2.10;;;25.20;65.00;;;;;;5233585;27;20488;-59
2021/06/28 05:49:07;;;;;;;3.22;2.42;;;25.30;64.90;;;;;;5231796;27;20507;-58
2021/06/28 05:51:49;;;;;;;4.80;2.30;;;25.30;64.70;;;;;;5243522;27;21227;-56
2021/06/28 05:54:32;;;;;;;7.10;2.00;;;25.40;64.60;;;;;;5201783;27;21008;-58
2021/06/28 05:57:19;;;;;;;5.97;2.17;;;25.40;64.50;;;;;;5190946;27;20547;-58
2021/06/28 06:00:08;;;;;;;4.80;2.30;;;25.40;64.40;;;;;;5201527;28;20504;-58
2021/06/28 06:03:00;;;;;;;3.63;2.42;;;25.50;64.30;;;;;;5226807;27;20488;-57
2021/06/28 06:05:43;;;;;;;3.17;2.38;;;25.50;64.90;;;;;;5187511;28;20509;-57
2021/06/28 06:08:26;;;;;;;2.83;2.15;;;25.50;64.10;;;;;;5230319;27;20550;-59
2021/06/28 06:11:09;;;;;;;2.42;2.17;;;25.50;64.10;;;;;;5240030;27;20648;-58
2021/06/28 06:13:52;;;;;;;5.63;2.63;;;25.60;64.70;;;;;;5202501;28;20510;-59
2021/06/28 06:16:35;;;;;;;4.10;2.70;;;25.60;63.90;;;;;;5238517;27;20798;-59
2021/06/28 06:19:19;;;;;;;2.80;2.45;;;25.60;63.90;;;;;;5223905;27;20513;-58
2021/06/28 06:22:03;;;;;;;4.88;2.47;;;25.70;63.90;;;;;;5230506;28;20563;-57
2021/06/28 06:24:46;;;;;;;5.38;2.55;;;25.60;63.90;;;;;;5186806;28;20510;-56
2021/06/28 06:27:29;;;;;;;3.03;2.33;;;25.70;64.00;;;;;;5200360;27;20644;-59
2021/06/28 06:30:12;;;;;;;2.65;2.45;;;25.70;63.90;;;;;;5196325;28;20989;-58
2021/06/28 06:33:03;;;;;;;5.43;3.03;;;25.70;63.90;;;;;;5244183;27;21571;-59
2021/06/28 06:35:49;;;;;;;3.85;2.50;;;25.70;63.90;;;;;;5239972;27;20967;-59
2021/06/28 06:38:33;;;;;;;6.03;3.03;;;25.70;63.90;;;;;;5196417;28;20505;-58
2021/06/28 06:41:17;;;;;;;3.90;3.20;;;25.70;63.80;;;;;;5240967;27;20503;-57
2021/06/28 06:44:00;;;;;;;4.35;2.78;;;25.70;63.80;;;;;;5196397;28;20486;-60
2021/06/28 06:46:43;;;;;;;5.47;3.35;;;25.80;63.80;;;;;;5245558;27;21429;-57
2021/06/28 06:49:26;;;;;;;3.80;3.22;;;25.70;63.70;;;;;;5194928;28;21011;-58
2021/06/28 06:52:10;;;;;;;5.85;2.90;;;25.70;63.60;;;;;;5197632;28;21084;-58
2021/06/28 06:54:53;;;;;;;3.67;2.88;;;25.70;63.50;;;;;;5231784;27;20469;-57
2021/06/28 06:57:37;;;;;;;7.18;3.97;;;25.80;63.60;;;;;;5190606;28;20868;-57
2021/06/28 07:00:21;;;;;;;4.63;3.38;;;25.80;63.60;;;;;;5187149;28;20642;-57
2021/06/28 07:03:04;;;;;;;4.38;2.92;;;25.70;63.60;;;;;;5241454;27;20728;-57
2021/06/28 07:05:47;;;;;;;6.25;2.92;;;25.80;63.70;;;;;;5154890;28;20420;-57
2021/06/28 07:08:30;;;;;;;5.32;3.30;;;25.80;63.60;;;;;;5191840;28;20551;-59
2021/06/28 07:11:13;;;;;;;3.65;2.88;;;25.80;63.60;;;;;;5182362;28;21286;-59
2021/06/28 07:13:57;;;;;;;3.42;3.13;;;25.80;63.60;;;;;;5245099;27;20501;-60
2021/06/28 07:16:41;;;;;;;4.97;3.67;;;25.80;63.60;;;;;;5223078;27;20539;-59
2021/06/28 07:19:24;;;;;;;3.00;2.80;;;25.80;63.60;;;;;;5218244;27;20553;-59
2021/06/28 07:22:07;;;;;;;8.13;3.92;;;25.80;64.20;;;;;;5222983;27;20491;-61
2021/06/28 07:24:50;;;;;;;6.70;3.13;;;25.80;63.60;;;;;;5178211;28;21293;-59
2021/06/28 07:27:33;;;;;;;3.13;2.85;;;25.80;63.90;;;;;;5231067;27;20586;-59
2021/06/28 07:30:19;;;;;;;5.07;3.20;;;25.80;63.60;;;;;;5189849;28;20515;-59
2021/06/28 07:33:03;;;;;;;5.20;3.63;;;25.80;63.60;;;;;;5226932;27;20527;-59
2021/06/28 07:35:46;;;;;;;4.15;3.28;;;25.80;63.60;;;;;;5239072;27;20516;-59
2021/06/28 07:38:30;;;;;;;4.10;3.10;;;25.80;63.60;;;;;;5221725;27;20516;-60
2021/06/28 07:41:12;;;;;;;3.55;2.88;;;25.80;63.50;;;;;;5176175;28;21190;-60
2021/06/28 07:43:58;;;;;;;4.68;3.40;;;25.90;63.50;;;;;;5208668;27;20525;-58
2021/06/28 07:46:42;;;;;;;3.33;3.03;;;26.00;63.50;;;;;;5213517;28;21595;-58
2021/06/28 07:49:26;;;;;;;3.72;3.33;;;25.90;63.50;;;;;;5234210;27;20417;-59
2021/06/28 07:52:10;;;;;;;5.55;3.15;;;25.90;63.60;;;;;;5192764;28;20560;-59
2021/06/28 07:54:53;;;;;;;6.38;2.90;;;26.00;63.50;;;;;;5232987;27;20504;-59
2021/06/28 07:57:35;;;;;;;3.00;2.70;;;26.00;63.60;;;;;;5205291;28;20572;-58
2021/06/28 08:00:19;;;;;;;3.05;2.75;;;26.00;63.50;;;;;;5223357;27;21034;-58
2021/06/28 08:03:06;;;;;;;3.13;2.83;;;26.00;63.30;;;;;;5198649;28;20840;-59
2021/06/28 08:05:49;;;;;;;3.05;2.75;;;26.00;63.40;;;;;;5260629;27;20396;-59
2021/06/28 08:08:32;;;;;;;3.38;3.08;;;26.00;63.30;;;;;;5217038;27;21135;-59
2021/06/28 08:11:17;;;;;;;4.30;3.03;;;26.00;63.30;;;;;;5299155;27;20420;-60
2021/06/28 08:14:00;;;;;;;3.20;2.90;;;26.10;63.30;;;;;;5199832;27;1215830;-58
2021/06/28 08:16:45;;;;;;;4.60;2.95;;;26.10;63.50;;;;;;5222122;27;20403;-58
2021/06/28 08:19:29;;;;;;;3.38;3.05;;;26.10;63.30;;;;;;5191762;27;20495;-58
2021/06/28 08:22:13;;;;;;;2.97;2.60;;;26.10;63.30;;;;;;5198365;27;20413;-57
2021/06/28 08:24:57;;;;;;;3.53;2.58;;;26.10;63.30;;;;;;5215422;27;20889;-58
2021/06/28 08:27:40;;;;;;;5.00;3.03;;;26.10;63.60;;;;;;5199092;28;20878;-59
2021/06/28 08:30:23;;;;;;;3.10;2.83;;;26.10;63.60;;;;;;5217953;27;20432;-60
2021/06/28 08:33:06;;;;;;;3.45;3.00;;;26.20;63.60;;;;;;5207115;27;20567;-59
2021/06/28 08:35:49;;;;;;;4.25;2.95;;;26.20;63.70;;;;;;5216660;27;20489;-58
2021/06/28 08:38:32;;;;;;;3.20;2.90;;;26.20;63.60;;;;;;5167286;28;20431;-59
2021/06/28 08:41:16;;;;;;;5.18;3.08;;;26.20;63.60;;;;;;5192106;28;20513;-59
2021/06/28 08:43:59;;;;;;;3.30;3.00;;;26.20;63.60;;;;;;5188524;28;20499;-58
2021/06/28 08:46:43;;;;;;;4.22;2.67;;;26.20;63.40;;;;;;5212269;28;20513;-58
2021/06/28 08:49:27;;;;;;;3.20;2.70;;;26.20;63.60;;;;;;5197759;28;20991;-59
2021/06/28 08:52:10;;;;;;;3.08;2.88;;;26.30;63.60;;;;;;5205089;28;21046;-59
2021/06/28 08:54:53;;;;;;;3.42;3.13;;;26.30;63.70;;;;;;5224546;27;20532;-59
2021/06/28 08:57:36;;;;;;;3.78;3.00;;;26.30;63.70;;;;;;5211368;27;20532;-59
2021/06/28 09:00:20;;;;;;;3.58;2.95;;;26.30;63.70;;;;;;5219560;27;20496;-58
2021/06/28 09:03:05;;;;;;;6.25;3.40;;;26.30;63.60;;;;;;5209537;27;21010;-60
2021/06/28 09:05:56;;;;;;;5.00;3.10;;;26.30;63.60;;;;;;5237996;27;20539;-58
2021/06/28 09:09:04;;;;;;;3.03;2.72;;;26.30;63.40;;;;;;5217002;27;20741;-59
2021/06/28 09:11:49;;;;;;;4.35;3.05;;;26.30;63.40;;;;;;5236051;27;21167;-58
2021/06/28 09:14:46;;;;;;;3.30;3.00;;;26.30;63.50;;;;;;5187801;28;20704;-59
2021/06/28 09:17:38;;;;;;;3.30;2.50;;;26.30;63.60;;;;;;5216060;27;21334;-58
2021/06/28 09:20:23;;;;;;;3.17;2.92;;;26.30;63.50;;;;;;5276572;27;20353;-59
2021/06/28 09:23:20;;;;;;;2.90;2.60;;;26.40;63.40;;;;;;5244520;27;20854;-58
2021/06/28 09:26:11;;;;;;;2.60;2.30;;;26.40;63.20;;;;;;5229753;27;20532;-58
2021/06/28 09:28:57;;;;;;;2.95;2.38;;;26.40;62.90;;;;;;5259068;27;21110;-58
2021/06/28 09:31:43;;;;;;;2.92;2.40;;;26.40;62.70;;;;;;5230694;27;20458;-59
2021/06/28 09:34:26;;;;;;;2.50;2.30;;;26.40;62.30;;;;;;5197079;27;20549;-59
2021/06/28 09:37:23;;;;;;;2.40;2.20;;;26.50;62.10;;;;;;5221545;27;20411;-59
2021/06/28 09:40:07;;;;;;;2.25;2.05;;;26.40;61.80;;;;;;5254955;27;21002;-61
2021/06/28 09:42:50;;;;;;;2.85;2.33;;;26.50;61.80;;;;;;5250307;27;20445;-59
2021/06/28 09:45:33;;;;;;;3.13;2.00;;;26.50;61.80;;;;;;5217343;27;20534;-57
2021/06/28 09:48:28;;;;;;;2.47;2.28;;;26.50;61.40;;;;;;5232561;27;20520;-58
2021/06/28 09:51:20;;;;;;;2.05;1.88;;;26.50;61.00;;;;;;5234968;27;20397;-57
2021/06/28 09:54:22;;;;;;;2.22;1.75;;;26.50;61.10;;;;;;5282180;27;20128;-59
2021/06/28 09:57:26;;;;;;;2.15;1.98;;;26.50;60.70;;;;;;5215883;27;20531;-58
2021/06/28 10:00:27;;;;;;;1.60;1.50;;;26.60;60.10;;;;;;5230017;27;20955;-58
2021/06/28 10:03:46;;;;;;;2.72;2.00;;;26.60;59.80;;;;;;5321108;27;20415;-58
2021/06/28 10:06:45;;;;;;;1.70;1.60;;;26.60;58.90;;;;;;5214416;27;20503;-56
2021/06/28 10:10:13;;;;;;;3.35;1.52;;;26.60;58.90;;;;;;5240386;27;20859;-58
2021/06/28 10:13:16;;;;;;;1.80;1.70;;;26.60;58.70;;;;;;5219571;27;21387;-57
2021/06/28 10:16:22;;;;;;;2.20;1.70;;;26.70;58.60;;;;;;5219219;27;20633;-58
2021/06/28 10:18:57;;;;;;;2.50;1.70;;;26.70;58.60;;;;;;5214832;28;20064;-58
2021/06/28 10:21:54;;;;;;;1.90;1.70;;;26.70;58.90;;;;;;5214114;27;20838;-59
2021/06/28 10:25:00;;;;;;;1.65;1.55;;;26.70;59.00;;;;;;5199142;28;21623;-58
2021/06/28 10:28:00;;;;;;;1.77;1.67;;;26.70;58.80;;;;;;5210923;27;20470;-58
2021/06/28 10:31:04;;;;;;;1.92;1.80;;;26.70;58.60;;;;;;5322689;27;20577;-58
2021/06/28 10:34:07;;;;;;;1.92;1.67;;;26.70;58.50;;;;;;5214305;27;20478;-58
2021/06/28 10:37:27;;;;;;;2.42;1.75;;;26.70;58.30;;;;;;5220496;27;20530;-57
2021/06/28 10:40:24;;;;;;;1.85;1.65;;;26.70;57.90;;;;;;5219415;27;20425;-58
2021/06/28 10:43:27;;;;;;;3.72;1.60;;;26.70;57.90;;;;;;5222639;27;21273;-58
2021/06/28 10:46:30;;;;;;;1.70;1.60;;;26.70;57.90;;;;;;5244519;27;20565;-58
2021/06/28 10:49:13;;;;;;;1.98;1.67;;;26.70;57.90;;;;;;5219004;27;20220;-59
2021/06/28 10:51:57;;;;;;;1.77;1.67;;;26.70;58.10;;;;;;5225919;27;21218;-58
2021/06/28 10:54:48;;;;;;;1.42;1.15;;;26.70;57.80;;;;;;5224703;28;20578;-57
2021/06/28 10:57:41;;;;;;;1.88;1.55;;;26.70;57.60;;;;;;5222558;28;20190;-58
2021/06/28 11:00:51;;;;;;;1.87;1.50;;;26.70;57.50;;;;;;5221736;28;20055;-58
2021/06/28 11:03:42;;;;;;;2.92;1.50;;;26.70;57.20;;;;;;5225031;28;20713;-59
2021/06/28 11:06:33;;;;;;;2.47;1.42;;;26.70;57.30;;;;;;5218006;28;20041;-59
2021/06/28 11:09:49;;;;;;;1.42;1.33;;;26.70;57.30;;;;;;5220473;28;20059;-59
2021/06/28 11:12:41;;;;;;;2.25;1.73;;;26.70;57.10;;;;;;5197558;28;20821;-61
2021/06/28 11:15:32;;;;;;;6.88;2.47;;;26.70;57.30;;;;;;5210429;28;20520;-58
2021/06/28 11:18:30;;;;;;;10.40;2.25;;;26.70;57.90;;;;;;5217299;28;20060;-59
2021/06/28 11:21:38;;;;;;;9.23;3.22;;;26.80;58.50;;;;;;5205479;28;20055;-59
2021/06/28 11:24:30;;;;;;;5.50;1.65;;;26.80;58.10;;;;;;5213382;28;20057;-59
2021/06/28 11:27:28;;;;;;;2.67;1.80;;;26.80;58.10;;;;;;5216952;27;20514;-56
2021/06/28 11:30:27;;;;;;;3.50;1.65;;;26.80;57.50;;;;;;5169290;27;20464;-57
2021/06/28 11:33:33;;;;;;;2.30;1.85;;;26.90;57.30;;;;;;5212977;27;20473;-59
2021/06/28 11:36:26;;;;;;;4.63;1.90;;;26.90;57.10;;;;;;5195432;28;20441;-55
2021/06/28 11:39:24;;;;;;;3.85;1.98;;;26.90;57.40;;;;;;5213967;28;20056;-58
2021/06/28 11:42:38;;;;;;;3.80;1.70;;;26.90;57.30;;;;;;5187784;28;20910;-58
2021/06/28 11:45:52;;;;;;;4.47;2.03;;;27.00;57.70;;;;;;5243293;27;20511;-58
2021/06/28 11:48:55;;;;;;;6.65;2.40;;;27.00;57.80;;;;;;5329671;27;20519;-57
2021/06/28 11:51:58;;;;;;;3.47;2.03;;;27.00;57.90;;;;;;5246572;27;20533;-58
2021/06/28 11:55:05;;;;;;;2.35;1.92;;;27.10;58.10;;;;;;5312458;27;20424;-53
2021/06/28 11:58:05;;;;;;;6.75;2.13;;;27.10;58.20;;;;;;5210789;27;20433;-59
2021/06/28 12:01:22;;;;;;;5.30;1.75;;;27.10;58.30;;;;;;5221934;27;21039;-56
2021/06/28 12:04:23;;;;;;;2.97;1.90;;;27.10;58.40;;;;;;5227149;27;20543;-54
2021/06/28 12:07:21;;;;;;;6.97;3.30;;;27.10;58.50;;;;;;5224195;27;20594;-58
2021/06/28 12:10:25;;;;;;;10.15;2.00;;;27.10;58.60;;;;;;5226325;27;20641;-58
2021/06/28 12:13:30;;;;;;;3.88;1.90;;;27.10;58.60;;;;;;5323634;27;21095;-56
2021/06/28 12:16:28;;;;;;;7.30;2.33;;;27.20;58.80;;;;;;5215630;27;20506;-58
2021/06/28 12:19:31;;;;;;;14.30;2.55;;;27.30;58.90;;;;;;5207985;27;20543;-58
2021/06/28 12:22:33;;;;;;;26.48;3.10;;;27.30;58.90;;;;;;5256211;27;20731;-58
2021/06/28 12:25:35;;;;;;;26.05;3.08;;;27.30;59.40;;;;;;5315091;27;20510;-58
2021/06/28 12:28:28;;;;;;;21.75;3.30;;;27.40;59.70;;;;;;5187893;27;20740;-59
2021/06/28 12:31:17;;;;;;;13.52;2.70;;;27.30;60.10;;;;;;5237147;27;20480;-57
2021/06/28 12:34:00;;;;;;;15.65;2.80;;;27.40;60.30;;;;;;5186638;28;20627;-58
2021/06/28 12:36:50;;;;;;;18.27;2.90;;;27.40;60.70;;;;;;5182838;28;20403;-59
2021/06/28 12:39:35;;;;;;;30.20;4.15;;;27.40;61.10;;;;;;5226726;27;20437;-58
2021/06/28 12:42:21;;;;;;;18.75;3.50;;;27.40;61.30;;;;;;5181356;28;20411;-57
2021/06/28 12:45:05;;;;;;;13.10;3.50;;;27.40;62.00;;;;;;5214781;27;20425;-57
2021/06/28 12:47:51;;;;;;;8.93;3.20;;;27.50;62.20;;;;;;5227964;27;20412;-58
2021/06/28 12:50:37;;;;;;;15.73;3.60;;;27.60;62.10;;;;;;5224930;27;20435;-56
2021/06/28 12:53:23;;;;;;;11.38;3.50;;;27.60;62.10;;;;;;5123377;28;20423;-58
2021/06/28 12:56:30;;;;;;;14.38;3.78;;;27.60;62.20;;;;;;5304060;27;20871;-59
2021/06/28 12:59:37;;;;;;;7.38;3.22;;;27.60;62.00;;;;;;5272446;27;20427;-57
2021/06/28 13:02:35;;;;;;;15.35;3.70;;;27.70;61.70;;;;;;5212266;27;20439;-59
2021/06/28 13:05:40;;;;;;;12.15;3.45;;;27.80;61.50;;;;;;5314148;27;21029;-58
2021/06/28 13:08:43;;;;;;;14.43;3.38;;;27.80;61.10;;;;;;5218088;27;20532;-58
2021/06/28 13:11:48;;;;;;;11.30;3.58;;;27.80;60.80;;;;;;5211616;27;20251;-59
2021/06/28 13:14:56;;;;;;;7.40;3.20;;;27.80;61.00;;;;;;5207245;27;20441;-59
2021/06/28 13:18:11;;;;;;;15.05;3.45;;;27.80;60.90;;;;;;5274126;27;20419;-59
2021/06/28 13:21:22;;;;;;;9.25;3.00;;;27.80;60.80;;;;;;5250385;27;20434;-59
2021/06/28 13:24:30;;;;;;;10.10;3.35;;;27.80;60.80;;;;;;5199521;27;20513;-59
2021/06/28 13:27:34;;;;;;;10.93;2.75;;;27.80;60.80;;;;;;5227556;27;20428;-58
2021/06/28 13:30:36;;;;;;;7.85;3.00;;;27.70;60.80;;;;;;5314411;27;20795;-59
2021/06/28 13:33:36;;;;;;;11.27;4.00;;;27.70;60.80;;;;;;5299824;27;20420;-58
2021/06/28 13:36:37;;;;;;;10.55;3.10;;;27.70;61.00;;;;;;5213047;27;21106;-58
2021/06/28 13:39:54;;;;;;;17.20;3.75;;;27.70;60.50;;;;;;5206324;27;20445;-58
2021/06/28 13:42:53;;;;;;;7.22;3.50;;;27.70;60.40;;;;;;5208953;27;20428;-59
2021/06/28 13:45:53;;;;;;;10.00;3.20;;;27.60;60.00;;;;;;5172008;27;20841;-59
2021/06/28 13:48:53;;;;;;;7.68;3.35;;;27.70;60.00;;;;;;5192293;27;20738;-59
2021/06/28 13:52:07;;;;;;;9.80;3.45;;;27.70;60.00;;;;;;5237974;27;20451;-60
2021/06/28 13:55:05;;;;;;;9.15;3.45;;;27.70;60.00;;;;;;5208812;27;20967;-58
2021/06/28 13:58:05;;;;;;;9.38;3.28;;;27.70;60.00;;;;;;5199364;27;20449;-58
2021/06/28 14:01:03;;;;;;;8.73;3.03;;;27.70;60.10;;;;;;5217162;27;20634;-56
2021/06/28 14:04:12;;;;;;;8.48;2.88;;;27.70;60.20;;;;;;5234357;27;21003;-59
2021/06/28 14:07:09;;;;;;;6.28;2.95;;;27.80;60.20;;;;;;5257878;27;20632;-59
2021/06/28 14:10:12;;;;;;;6.32;3.15;;;27.80;60.20;;;;;;5209149;27;20427;-59
2021/06/28 14:13:10;;;;;;;9.90;3.03;;;27.80;60.00;;;;;;5209228;27;20987;-59
2021/06/28 14:16:11;;;;;;;8.82;3.90;;;27.80;60.70;;;;;;5315244;27;20420;-59
2021/06/28 14:19:11;;;;;;;6.22;3.50;;;27.80;60.00;;;;;;5298679;27;20403;-59
2021/06/28 14:22:12;;;;;;;11.07;3.30;;;27.80;60.00;;;;;;5336283;27;20489;-61
2021/06/28 14:25:11;;;;;;;6.93;3.05;;;27.80;60.00;;;;;;5209987;27;20439;-61